sensor_id;sensor_type;location;lat;lon;timestamp;P1;durP1;ratioP1;P2;durP2;ratioP2
74808;SDS011;63338;39.544;2.596;2023-04-03T00:01:19;2.92;;;0.40;;
74808;SDS011;63338;39.544;2.596;2023-04-03T00:03:46;4.78;;;0.50;;
74808;SDS011;63338;39.544;2.596;2023-04-03T00:06:12;4.63;;;0.43;;
74808;SDS011;63338;39.544;2.596;2023-04-03T00:08:38;4.72;;;0.57;;
74808;SDS011;63338;39.544;2.596;2023-04-03T00:11:08;2.50;;;0.47;;
74808;SDS011;63338;39.544;2.596;2023-04-03T00:13:35;5.90;;;0.68;;
74808;SDS011;63338;39.544;2.596;2023-04-03T00:16:02;6.72;;;0.68;;
74808;SDS011;63338;39.544;2.596;2023-04-03T00:18:28;5.07;;;0.55;;
74808;SDS011;63338;39.544;2.596;2023-04-03T00:20:56;4.32;;;0.70;;
74808;SDS011;63338;39.544;2.596;2023-04-03T00:23:22;6.03;;;0.60;;
74808;SDS011;63338;39.544;2.596;2023-04-03T00:25:49;5.03;;;0.80;;
74808;SDS011;63338;39.544;2.596;2023-04-03T00:28:15;2.85;;;0.50;;
74808;SDS011;63338;39.544;2.596;2023-04-03T00:30:42;2.92;;;0.52;;
74808;SDS011;63338;39.544;2.596;2023-04-03T00:33:09;4.20;;;0.65;;
74808;SDS011;63338;39.544;2.596;2023-04-03T00:35:38;4.65;;;0.75;;
74808;SDS011;63338;39.544;2.596;2023-04-03T00:38:04;9.20;;;0.70;;
74808;SDS011;63338;39.544;2.596;2023-04-03T00:40:33;3.22;;;0.60;;
74808;SDS011;63338;39.544;2.596;2023-04-03T00:43:01;6.60;;;0.73;;
74808;SDS011;63338;39.544;2.596;2023-04-03T00:45:32;3.30;;;1.00;;
74808;SDS011;63338;39.544;2.596;2023-04-03T00:48:03;5.70;;;0.90;;
74808;SDS011;63338;39.544;2.596;2023-04-03T00:50:32;7.20;;;0.57;;
74808;SDS011;63338;39.544;2.596;2023-04-03T00:53:03;5.70;;;0.50;;
74808;SDS011;63338;39.544;2.596;2023-04-03T00:55:31;4.88;;;0.68;;
74808;SDS011;63338;39.544;2.596;2023-04-03T00:57:59;10.38;;;0.95;;
74808;SDS011;63338;39.544;2.596;2023-04-03T01:00:26;4.93;;;0.55;;
74808;SDS011;63338;39.544;2.596;2023-04-03T01:02:53;8.07;;;1.83;;
74808;SDS011;63338;39.544;2.596;2023-04-03T01:05:19;4.78;;;0.63;;
74808;SDS011;63338;39.544;2.596;2023-04-03T01:07:46;6.20;;;0.57;;
74808;SDS011;63338;39.544;2.596;2023-04-03T01:10:15;5.38;;;0.82;;
74808;SDS011;63338;39.544;2.596;2023-04-03T01:12:45;6.50;;;0.90;;
74808;SDS011;63338;39.544;2.596;2023-04-03T01:15:18;8.85;;;0.70;;
74808;SDS011;63338;39.544;2.596;2023-04-03T01:25:39;6.10;;;0.73;;
74808;SDS011;63338;39.544;2.596;2023-04-03T01:28:09;5.82;;;1.20;;
74808;SDS011;63338;39.544;2.596;2023-04-03T01:33:31;6.57;;;1.00;;
74808;SDS011;63338;39.544;2.596;2023-04-03T01:35:57;6.82;;;0.88;;
74808;SDS011;63338;39.544;2.596;2023-04-03T01:38:23;8.20;;;0.82;;
74808;SDS011;63338;39.544;2.596;2023-04-03T01:40:51;5.35;;;0.68;;
74808;SDS011;63338;39.544;2.596;2023-04-03T01:43:17;4.50;;;0.60;;
74808;SDS011;63338;39.544;2.596;2023-04-03T01:45:43;5.40;;;0.90;;
74808;SDS011;63338;39.544;2.596;2023-04-03T01:48:09;9.77;;;1.00;;
74808;SDS011;63338;39.544;2.596;2023-04-03T01:50:37;10.30;;;0.90;;
74808;SDS011;63338;39.544;2.596;2023-04-03T01:53:04;7.97;;;0.80;;
74808;SDS011;63338;39.544;2.596;2023-04-03T01:55:33;6.82;;;0.57;;
74808;SDS011;63338;39.544;2.596;2023-04-03T01:57:59;6.55;;;1.10;;
74808;SDS011;63338;39.544;2.596;2023-04-03T02:00:25;6.30;;;0.70;;
74808;SDS011;63338;39.544;2.596;2023-04-03T02:02:52;5.50;;;0.70;;
74808;SDS011;63338;39.544;2.596;2023-04-03T02:05:18;6.93;;;0.77;;
74808;SDS011;63338;39.544;2.596;2023-04-03T02:07:45;8.63;;;0.93;;
74808;SDS011;63338;39.544;2.596;2023-04-03T02:10:11;2.83;;;0.70;;
74808;SDS011;63338;39.544;2.596;2023-04-03T02:12:39;7.93;;;0.98;;
74808;SDS011;63338;39.544;2.596;2023-04-03T02:15:06;5.95;;;0.90;;
74808;SDS011;63338;39.544;2.596;2023-04-03T02:17:32;6.60;;;0.65;;
74808;SDS011;63338;39.544;2.596;2023-04-03T02:20:00;5.45;;;0.80;;
74808;SDS011;63338;39.544;2.596;2023-04-03T02:22:26;11.73;;;0.90;;
74808;SDS011;63338;39.544;2.596;2023-04-03T02:24:52;7.55;;;1.00;;
74808;SDS011;63338;39.544;2.596;2023-04-03T02:27:18;8.27;;;1.67;;
74808;SDS011;63338;39.544;2.596;2023-04-03T02:29:44;6.72;;;1.63;;
74808;SDS011;63338;39.544;2.596;2023-04-03T02:32:10;4.85;;;0.75;;
74808;SDS011;63338;39.544;2.596;2023-04-03T02:34:36;9.52;;;0.90;;
74808;SDS011;63338;39.544;2.596;2023-04-03T02:37:02;6.63;;;0.75;;
74808;SDS011;63338;39.544;2.596;2023-04-03T02:39:28;8.88;;;0.95;;
74808;SDS011;63338;39.544;2.596;2023-04-03T02:41:55;7.88;;;1.13;;
74808;SDS011;63338;39.544;2.596;2023-04-03T02:44:21;5.35;;;0.88;;
74808;SDS011;63338;39.544;2.596;2023-04-03T02:46:49;10.05;;;1.45;;
74808;SDS011;63338;39.544;2.596;2023-04-03T02:49:15;7.63;;;0.98;;
74808;SDS011;63338;39.544;2.596;2023-04-03T02:51:41;7.40;;;1.02;;
74808;SDS011;63338;39.544;2.596;2023-04-03T02:54:08;7.03;;;0.80;;
74808;SDS011;63338;39.544;2.596;2023-04-03T02:56:35;5.97;;;0.70;;
74808;SDS011;63338;39.544;2.596;2023-04-03T02:59:01;4.95;;;0.85;;
74808;SDS011;63338;39.544;2.596;2023-04-03T03:01:27;4.00;;;0.50;;
74808;SDS011;63338;39.544;2.596;2023-04-03T03:03:56;9.27;;;0.95;;
74808;SDS011;63338;39.544;2.596;2023-04-03T03:06:23;6.70;;;0.70;;
74808;SDS011;63338;39.544;2.596;2023-04-03T03:08:49;7.40;;;0.60;;
74808;SDS011;63338;39.544;2.596;2023-04-03T03:11:18;7.43;;;0.95;;
74808;SDS011;63338;39.544;2.596;2023-04-03T03:13:45;6.63;;;0.80;;
74808;SDS011;63338;39.544;2.596;2023-04-03T03:16:11;3.60;;;0.70;;
74808;SDS011;63338;39.544;2.596;2023-04-03T03:18:37;6.65;;;0.88;;
74808;SDS011;63338;39.544;2.596;2023-04-03T03:21:03;5.85;;;0.90;;
74808;SDS011;63338;39.544;2.596;2023-04-03T03:23:30;5.53;;;1.73;;
74808;SDS011;63338;39.544;2.596;2023-04-03T03:26:01;4.88;;;0.57;;
74808;SDS011;63338;39.544;2.596;2023-04-03T03:28:32;11.50;;;1.35;;
74808;SDS011;63338;39.544;2.596;2023-04-03T03:31:03;6.60;;;0.75;;
74808;SDS011;63338;39.544;2.596;2023-04-03T03:33:29;7.63;;;0.70;;
74808;SDS011;63338;39.544;2.596;2023-04-03T03:35:58;4.80;;;0.60;;
74808;SDS011;63338;39.544;2.596;2023-04-03T03:38:25;7.70;;;0.90;;
74808;SDS011;63338;39.544;2.596;2023-04-03T03:40:52;5.60;;;0.63;;
74808;SDS011;63338;39.544;2.596;2023-04-03T03:43:18;8.02;;;0.68;;
74808;SDS011;63338;39.544;2.596;2023-04-03T03:45:46;7.80;;;0.90;;
74808;SDS011;63338;39.544;2.596;2023-04-03T03:48:16;6.63;;;0.80;;
74808;SDS011;63338;39.544;2.596;2023-04-03T03:50:42;5.63;;;0.70;;
74808;SDS011;63338;39.544;2.596;2023-04-03T03:53:08;4.47;;;0.80;;
74808;SDS011;63338;39.544;2.596;2023-04-03T03:55:35;8.18;;;0.80;;
74808;SDS011;63338;39.544;2.596;2023-04-03T03:58:01;4.88;;;0.73;;
74808;SDS011;63338;39.544;2.596;2023-04-03T04:00:28;6.05;;;0.82;;
74808;SDS011;63338;39.544;2.596;2023-04-03T04:02:55;7.28;;;0.70;;
74808;SDS011;63338;39.544;2.596;2023-04-03T04:05:21;6.70;;;1.20;;
74808;SDS011;63338;39.544;2.596;2023-04-03T04:07:48;3.60;;;0.82;;
74808;SDS011;63338;39.544;2.596;2023-04-03T04:10:14;13.80;;;1.10;;
74808;SDS011;63338;39.544;2.596;2023-04-03T04:12:40;5.30;;;0.70;;
74808;SDS011;63338;39.544;2.596;2023-04-03T04:15:06;6.45;;;0.65;;
74808;SDS011;63338;39.544;2.596;2023-04-03T04:17:32;3.88;;;0.65;;
74808;SDS011;63338;39.544;2.596;2023-04-03T04:20:00;9.80;;;0.95;;
74808;SDS011;63338;39.544;2.596;2023-04-03T04:22:28;10.38;;;0.70;;
74808;SDS011;63338;39.544;2.596;2023-04-03T04:24:54;8.63;;;1.08;;
74808;SDS011;63338;39.544;2.596;2023-04-03T04:27:20;11.77;;;1.33;;
74808;SDS011;63338;39.544;2.596;2023-04-03T04:29:46;6.82;;;0.93;;
74808;SDS011;63338;39.544;2.596;2023-04-03T04:32:12;5.75;;;0.80;;
74808;SDS011;63338;39.544;2.596;2023-04-03T04:34:38;9.93;;;1.10;;
74808;SDS011;63338;39.544;2.596;2023-04-03T04:37:04;9.05;;;1.50;;
74808;SDS011;63338;39.544;2.596;2023-04-03T04:39:30;8.05;;;0.98;;
74808;SDS011;63338;39.544;2.596;2023-04-03T04:41:56;12.32;;;1.48;;
74808;SDS011;63338;39.544;2.596;2023-04-03T04:44:22;5.88;;;1.05;;
74808;SDS011;63338;39.544;2.596;2023-04-03T04:46:48;8.88;;;1.17;;
74808;SDS011;63338;39.544;2.596;2023-04-03T04:49:15;11.57;;;2.28;;
74808;SDS011;63338;39.544;2.596;2023-04-03T04:51:42;7.35;;;1.15;;
74808;SDS011;63338;39.544;2.596;2023-04-03T04:54:08;7.47;;;1.13;;
74808;SDS011;63338;39.544;2.596;2023-04-03T04:56:34;10.32;;;1.70;;
74808;SDS011;63338;39.544;2.596;2023-04-03T04:59:00;10.35;;;1.15;;
74808;SDS011;63338;39.544;2.596;2023-04-03T05:01:26;10.07;;;1.73;;
74808;SDS011;63338;39.544;2.596;2023-04-03T05:03:52;8.23;;;0.88;;
74808;SDS011;63338;39.544;2.596;2023-04-03T05:06:19;12.90;;;1.80;;
74808;SDS011;63338;39.544;2.596;2023-04-03T05:08:44;6.22;;;1.10;;
74808;SDS011;63338;39.544;2.596;2023-04-03T05:11:11;11.85;;;1.23;;
74808;SDS011;63338;39.544;2.596;2023-04-03T05:13:37;9.63;;;1.00;;
74808;SDS011;63338;39.544;2.596;2023-04-03T05:16:03;8.38;;;1.13;;
74808;SDS011;63338;39.544;2.596;2023-04-03T05:18:29;6.38;;;0.68;;
74808;SDS011;63338;39.544;2.596;2023-04-03T05:20:55;7.10;;;0.93;;
74808;SDS011;63338;39.544;2.596;2023-04-03T05:23:23;7.18;;;1.02;;
74808;SDS011;63338;39.544;2.596;2023-04-03T05:25:52;8.35;;;1.17;;
74808;SDS011;63338;39.544;2.596;2023-04-03T05:28:18;7.82;;;1.35;;
74808;SDS011;63338;39.544;2.596;2023-04-03T05:30:55;10.20;;;1.30;;
74808;SDS011;63338;39.544;2.596;2023-04-03T05:33:22;6.18;;;0.93;;
74808;SDS011;63338;39.544;2.596;2023-04-03T05:35:49;9.27;;;1.75;;
74808;SDS011;63338;39.544;2.596;2023-04-03T05:38:15;9.68;;;1.40;;
74808;SDS011;63338;39.544;2.596;2023-04-03T05:40:41;17.45;;;3.10;;
74808;SDS011;63338;39.544;2.596;2023-04-03T05:43:08;9.93;;;1.15;;
74808;SDS011;63338;39.544;2.596;2023-04-03T05:45:34;9.57;;;1.08;;
74808;SDS011;63338;39.544;2.596;2023-04-03T05:48:01;7.43;;;1.40;;
74808;SDS011;63338;39.544;2.596;2023-04-03T05:50:27;7.80;;;1.55;;
74808;SDS011;63338;39.544;2.596;2023-04-03T05:52:54;6.88;;;1.55;;
74808;SDS011;63338;39.544;2.596;2023-04-03T05:55:23;15.25;;;1.75;;
74808;SDS011;63338;39.544;2.596;2023-04-03T05:57:49;14.52;;;1.90;;
74808;SDS011;63338;39.544;2.596;2023-04-03T06:00:15;11.18;;;2.05;;
74808;SDS011;63338;39.544;2.596;2023-04-03T06:02:45;16.95;;;2.72;;
74808;SDS011;63338;39.544;2.596;2023-04-03T06:05:11;10.57;;;1.58;;
74808;SDS011;63338;39.544;2.596;2023-04-03T06:07:38;13.35;;;1.52;;
74808;SDS011;63338;39.544;2.596;2023-04-03T06:10:04;12.07;;;1.48;;
74808;SDS011;63338;39.544;2.596;2023-04-03T06:12:32;7.72;;;1.17;;
74808;SDS011;63338;39.544;2.596;2023-04-03T06:14:58;8.70;;;1.50;;
74808;SDS011;63338;39.544;2.596;2023-04-03T06:17:26;9.05;;;1.20;;
74808;SDS011;63338;39.544;2.596;2023-04-03T06:19:52;7.32;;;1.50;;
74808;SDS011;63338;39.544;2.596;2023-04-03T06:22:18;9.32;;;1.38;;
74808;SDS011;63338;39.544;2.596;2023-04-03T06:24:45;6.93;;;1.50;;
74808;SDS011;63338;39.544;2.596;2023-04-03T06:27:11;6.47;;;1.50;;
74808;SDS011;63338;39.544;2.596;2023-04-03T06:29:38;8.85;;;1.73;;
74808;SDS011;63338;39.544;2.596;2023-04-03T06:32:06;7.50;;;1.40;;
74808;SDS011;63338;39.544;2.596;2023-04-03T06:34:32;8.23;;;1.20;;
74808;SDS011;63338;39.544;2.596;2023-04-03T06:36:58;15.35;;;2.10;;
74808;SDS011;63338;39.544;2.596;2023-04-03T06:39:25;10.23;;;1.88;;
74808;SDS011;63338;39.544;2.596;2023-04-03T06:41:51;11.00;;;2.03;;
74808;SDS011;63338;39.544;2.596;2023-04-03T06:44:18;12.70;;;1.67;;
74808;SDS011;63338;39.544;2.596;2023-04-03T06:46:44;8.65;;;1.60;;
74808;SDS011;63338;39.544;2.596;2023-04-03T06:49:12;9.48;;;1.60;;
74808;SDS011;63338;39.544;2.596;2023-04-03T06:51:38;10.45;;;2.10;;
74808;SDS011;63338;39.544;2.596;2023-04-03T06:54:07;14.00;;;2.25;;
74808;SDS011;63338;39.544;2.596;2023-04-03T06:56:33;8.82;;;1.80;;
74808;SDS011;63338;39.544;2.596;2023-04-03T06:59:00;12.80;;;1.50;;
74808;SDS011;63338;39.544;2.596;2023-04-03T07:01:27;9.15;;;1.55;;
74808;SDS011;63338;39.544;2.596;2023-04-03T07:03:54;11.55;;;1.60;;
74808;SDS011;63338;39.544;2.596;2023-04-03T07:06:21;12.57;;;1.90;;
74808;SDS011;63338;39.544;2.596;2023-04-03T07:08:48;11.45;;;1.52;;
74808;SDS011;63338;39.544;2.596;2023-04-03T07:11:17;12.88;;;1.67;;
74808;SDS011;63338;39.544;2.596;2023-04-03T07:13:43;7.05;;;1.23;;
74808;SDS011;63338;39.544;2.596;2023-04-03T07:16:12;12.15;;;1.45;;
74808;SDS011;63338;39.544;2.596;2023-04-03T07:18:38;13.80;;;1.52;;
74808;SDS011;63338;39.544;2.596;2023-04-03T07:21:04;11.75;;;1.35;;
74808;SDS011;63338;39.544;2.596;2023-04-03T07:23:31;10.10;;;1.48;;
74808;SDS011;63338;39.544;2.596;2023-04-03T07:25:57;13.35;;;1.30;;
74808;SDS011;63338;39.544;2.596;2023-04-03T07:28:24;7.38;;;0.90;;
74808;SDS011;63338;39.544;2.596;2023-04-03T07:30:52;11.40;;;1.35;;
74808;SDS011;63338;39.544;2.596;2023-04-03T07:33:21;8.93;;;1.02;;
74808;SDS011;63338;39.544;2.596;2023-04-03T07:35:50;9.10;;;0.90;;
74808;SDS011;63338;39.544;2.596;2023-04-03T07:38:16;7.95;;;1.23;;
74808;SDS011;63338;39.544;2.596;2023-04-03T07:40:47;7.20;;;1.20;;
74808;SDS011;63338;39.544;2.596;2023-04-03T07:43:14;11.88;;;1.25;;
74808;SDS011;63338;39.544;2.596;2023-04-03T07:45:41;13.52;;;2.00;;
74808;SDS011;63338;39.544;2.596;2023-04-03T07:48:10;9.07;;;1.30;;
74808;SDS011;63338;39.544;2.596;2023-04-03T07:50:39;7.03;;;0.93;;
74808;SDS011;63338;39.544;2.596;2023-04-03T07:53:06;5.30;;;0.90;;
74808;SDS011;63338;39.544;2.596;2023-04-03T07:55:33;10.25;;;1.00;;
74808;SDS011;63338;39.544;2.596;2023-04-03T07:58:01;10.77;;;0.93;;
74808;SDS011;63338;39.544;2.596;2023-04-03T08:00:28;13.43;;;1.42;;
74808;SDS011;63338;39.544;2.596;2023-04-03T08:02:54;9.48;;;1.05;;
74808;SDS011;63338;39.544;2.596;2023-04-03T08:05:21;11.30;;;1.08;;
74808;SDS011;63338;39.544;2.596;2023-04-03T08:07:50;8.32;;;1.02;;
74808;SDS011;63338;39.544;2.596;2023-04-03T08:10:16;7.38;;;1.00;;
74808;SDS011;63338;39.544;2.596;2023-04-03T08:12:45;9.43;;;0.98;;
74808;SDS011;63338;39.544;2.596;2023-04-03T08:15:12;8.85;;;2.30;;
74808;SDS011;63338;39.544;2.596;2023-04-03T08:17:38;8.65;;;1.80;;
74808;SDS011;63338;39.544;2.596;2023-04-03T08:20:05;5.68;;;0.80;;
74808;SDS011;63338;39.544;2.596;2023-04-03T08:22:32;7.72;;;1.08;;
74808;SDS011;63338;39.544;2.596;2023-04-03T08:25:01;5.65;;;0.90;;
74808;SDS011;63338;39.544;2.596;2023-04-03T08:27:28;12.35;;;1.00;;
74808;SDS011;63338;39.544;2.596;2023-04-03T08:29:57;9.07;;;1.05;;
74808;SDS011;63338;39.544;2.596;2023-04-03T08:32:23;9.02;;;1.10;;
74808;SDS011;63338;39.544;2.596;2023-04-03T08:34:50;9.02;;;1.42;;
74808;SDS011;63338;39.544;2.596;2023-04-03T08:37:18;9.48;;;1.70;;
74808;SDS011;63338;39.544;2.596;2023-04-03T08:39:45;11.10;;;1.92;;
74808;SDS011;63338;39.544;2.596;2023-04-03T08:47:47;11.32;;;1.75;;
74808;SDS011;63338;39.544;2.596;2023-04-03T08:50:48;11.38;;;1.55;;
74808;SDS011;63338;39.544;2.596;2023-04-03T08:53:23;11.73;;;1.42;;
74808;SDS011;63338;39.544;2.596;2023-04-03T08:55:54;10.05;;;1.20;;
74808;SDS011;63338;39.544;2.596;2023-04-03T08:58:22;11.77;;;1.80;;
74808;SDS011;63338;39.544;2.596;2023-04-03T09:01:02;7.53;;;1.23;;
74808;SDS011;63338;39.544;2.596;2023-04-03T09:03:31;12.55;;;1.27;;
74808;SDS011;63338;39.544;2.596;2023-04-03T09:11:25;9.85;;;1.42;;
74808;SDS011;63338;39.544;2.596;2023-04-03T09:14:16;10.95;;;1.13;;
74808;SDS011;63338;39.544;2.596;2023-04-03T09:20:13;9.10;;;1.30;;
74808;SDS011;63338;39.544;2.596;2023-04-03T09:22:54;9.07;;;1.35;;
74808;SDS011;63338;39.544;2.596;2023-04-03T09:25:23;8.00;;;1.05;;
74808;SDS011;63338;39.544;2.596;2023-04-03T09:27:59;9.32;;;1.20;;
74808;SDS011;63338;39.544;2.596;2023-04-03T09:30:29;10.13;;;1.30;;
74808;SDS011;63338;39.544;2.596;2023-04-03T09:32:57;8.75;;;1.13;;
74808;SDS011;63338;39.544;2.596;2023-04-03T09:35:27;6.03;;;1.17;;
74808;SDS011;63338;39.544;2.596;2023-04-03T09:38:00;9.82;;;1.20;;
74808;SDS011;63338;39.544;2.596;2023-04-03T09:40:41;10.52;;;1.38;;
74808;SDS011;63338;39.544;2.596;2023-04-03T09:45:45;9.35;;;1.08;;
74808;SDS011;63338;39.544;2.596;2023-04-03T10:01:36;8.02;;;1.05;;
74808;SDS011;63338;39.544;2.596;2023-04-03T10:06:42;6.65;;;1.30;;
74808;SDS011;63338;39.544;2.596;2023-04-03T10:09:29;7.03;;;1.17;;
74808;SDS011;63338;39.544;2.596;2023-04-03T10:11:58;7.97;;;1.25;;
74808;SDS011;63338;39.544;2.596;2023-04-03T10:14:33;6.65;;;0.95;;
74808;SDS011;63338;39.544;2.596;2023-04-03T10:22:41;7.55;;;1.17;;
74808;SDS011;63338;39.544;2.596;2023-04-03T10:27:59;7.05;;;1.50;;
74808;SDS011;63338;39.544;2.596;2023-04-03T10:36:02;9.82;;;1.35;;
74808;SDS011;63338;39.544;2.596;2023-04-03T10:38:57;10.50;;;1.10;;
74808;SDS011;63338;39.544;2.596;2023-04-03T10:47:02;10.05;;;1.17;;
74808;SDS011;63338;39.544;2.596;2023-04-03T10:52:48;10.13;;;1.02;;
74808;SDS011;63338;39.544;2.596;2023-04-03T10:57:52;10.10;;;1.25;;
74808;SDS011;63338;39.544;2.596;2023-04-03T11:00:25;9.02;;;1.73;;
74808;SDS011;63338;39.544;2.596;2023-04-03T11:03:13;8.90;;;1.35;;
74808;SDS011;63338;39.544;2.596;2023-04-03T11:06:02;11.68;;;1.38;;
74808;SDS011;63338;39.544;2.596;2023-04-03T11:11:24;10.95;;;1.60;;
74808;SDS011;63338;39.544;2.596;2023-04-03T11:14:00;8.80;;;1.23;;
74808;SDS011;63338;39.544;2.596;2023-04-03T11:16:27;10.98;;;1.15;;
74808;SDS011;63338;39.544;2.596;2023-04-03T11:19:01;7.45;;;1.25;;
74808;SDS011;63338;39.544;2.596;2023-04-03T11:22:01;9.13;;;1.20;;
74808;SDS011;63338;39.544;2.596;2023-04-03T11:24:32;7.03;;;1.27;;
74808;SDS011;63338;39.544;2.596;2023-04-03T11:27:01;6.97;;;1.02;;
74808;SDS011;63338;39.544;2.596;2023-04-03T11:29:34;9.65;;;1.13;;
74808;SDS011;63338;39.544;2.596;2023-04-03T11:34:42;10.23;;;1.40;;
74808;SDS011;63338;39.544;2.596;2023-04-03T11:37:57;8.32;;;1.15;;
74808;SDS011;63338;39.544;2.596;2023-04-03T11:39:58;7.00;;;1.20;;
74808;SDS011;63338;39.544;2.596;2023-04-03T11:50:57;8.63;;;1.40;;
74808;SDS011;63338;39.544;2.596;2023-04-03T11:53:26;8.77;;;1.48;;
74808;SDS011;63338;39.544;2.596;2023-04-03T11:56:27;15.10;;;1.88;;
74808;SDS011;63338;39.544;2.596;2023-04-03T12:08:28;8.18;;;0.95;;
74808;SDS011;63338;39.544;2.596;2023-04-03T12:16:06;8.95;;;1.15;;
74808;SDS011;63338;39.544;2.596;2023-04-03T12:21:18;12.82;;;1.15;;
74808;SDS011;63338;39.544;2.596;2023-04-03T12:23:58;6.95;;;1.15;;
74808;SDS011;63338;39.544;2.596;2023-04-03T12:26:43;11.05;;;1.23;;
74808;SDS011;63338;39.544;2.596;2023-04-03T12:48:27;11.80;;;1.50;;
74808;SDS011;63338;39.544;2.596;2023-04-03T12:50:58;11.45;;;1.50;;
74808;SDS011;63338;39.544;2.596;2023-04-03T12:53:29;15.30;;;1.67;;
74808;SDS011;63338;39.544;2.596;2023-04-03T12:58:53;8.48;;;1.63;;
74808;SDS011;63338;39.544;2.596;2023-04-03T13:01:22;8.05;;;1.10;;
74808;SDS011;63338;39.544;2.596;2023-04-03T13:03:51;9.70;;;1.38;;
74808;SDS011;63338;39.544;2.596;2023-04-03T13:06:21;19.40;;;1.42;;
74808;SDS011;63338;39.544;2.596;2023-04-03T13:08:59;14.18;;;1.20;;
74808;SDS011;63338;39.544;2.596;2023-04-03T13:11:27;16.02;;;1.60;;
74808;SDS011;63338;39.544;2.596;2023-04-03T13:14:01;8.80;;;2.03;;
74808;SDS011;63338;39.544;2.596;2023-04-03T13:16:39;11.55;;;1.10;;
74808;SDS011;63338;39.544;2.596;2023-04-03T13:19:14;10.65;;;1.40;;
74808;SDS011;63338;39.544;2.596;2023-04-03T13:21:42;13.77;;;1.40;;
74808;SDS011;63338;39.544;2.596;2023-04-03T13:24:10;18.50;;;1.88;;
74808;SDS011;63338;39.544;2.596;2023-04-03T13:26:39;12.50;;;1.25;;
74808;SDS011;63338;39.544;2.596;2023-04-03T13:29:06;8.57;;;1.20;;
74808;SDS011;63338;39.544;2.596;2023-04-03T13:31:47;13.00;;;1.10;;
74808;SDS011;63338;39.544;2.596;2023-04-03T13:34:19;12.30;;;1.65;;
74808;SDS011;63338;39.544;2.596;2023-04-03T13:41:47;5.90;;;0.80;;
74808;SDS011;63338;39.544;2.596;2023-04-03T13:46:55;6.90;;;0.82;;
74808;SDS011;63338;39.544;2.596;2023-04-03T13:51:57;6.45;;;0.80;;
74808;SDS011;63338;39.544;2.596;2023-04-03T13:57:13;4.68;;;1.05;;
74808;SDS011;63338;39.544;2.596;2023-04-03T13:59:41;8.68;;;0.70;;
74808;SDS011;63338;39.544;2.596;2023-04-03T14:04:50;4.90;;;0.60;;
74808;SDS011;63338;39.544;2.596;2023-04-03T14:07:24;6.47;;;0.75;;
74808;SDS011;63338;39.544;2.596;2023-04-03T14:09:50;7.00;;;0.50;;
74808;SDS011;63338;39.544;2.596;2023-04-03T14:12:31;6.25;;;0.82;;
74808;SDS011;63338;39.544;2.596;2023-04-03T14:15:00;5.10;;;0.52;;
74808;SDS011;63338;39.544;2.596;2023-04-03T14:17:27;6.95;;;0.93;;
74808;SDS011;63338;39.544;2.596;2023-04-03T14:19:55;11.15;;;1.00;;
74808;SDS011;63338;39.544;2.596;2023-04-03T14:22:27;5.55;;;0.45;;
74808;SDS011;63338;39.544;2.596;2023-04-03T14:24:55;5.82;;;0.45;;
74808;SDS011;63338;39.544;2.596;2023-04-03T14:27:23;6.55;;;0.55;;
74808;SDS011;63338;39.544;2.596;2023-04-03T14:29:52;3.30;;;0.60;;
74808;SDS011;63338;39.544;2.596;2023-04-03T14:32:20;5.28;;;0.75;;
74808;SDS011;63338;39.544;2.596;2023-04-03T14:34:48;4.72;;;0.50;;
74808;SDS011;63338;39.544;2.596;2023-04-03T14:37:17;4.88;;;0.70;;
74808;SDS011;63338;39.544;2.596;2023-04-03T14:39:46;5.32;;;0.47;;
74808;SDS011;63338;39.544;2.596;2023-04-03T14:42:14;9.93;;;0.70;;
74808;SDS011;63338;39.544;2.596;2023-04-03T14:44:43;2.08;;;0.40;;
74808;SDS011;63338;39.544;2.596;2023-04-03T14:47:13;5.47;;;0.75;;
74808;SDS011;63338;39.544;2.596;2023-04-03T14:49:44;5.38;;;0.60;;
74808;SDS011;63338;39.544;2.596;2023-04-03T14:54:46;3.03;;;0.60;;
74808;SDS011;63338;39.544;2.596;2023-04-03T14:57:13;8.13;;;0.75;;
74808;SDS011;63338;39.544;2.596;2023-04-03T14:59:42;6.63;;;0.73;;
74808;SDS011;63338;39.544;2.596;2023-04-03T15:04:56;4.68;;;0.47;;
74808;SDS011;63338;39.544;2.596;2023-04-03T15:07:24;4.53;;;0.40;;
74808;SDS011;63338;39.544;2.596;2023-04-03T15:09:52;2.35;;;0.40;;
74808;SDS011;63338;39.544;2.596;2023-04-03T15:12:21;5.72;;;0.70;;
74808;SDS011;63338;39.544;2.596;2023-04-03T15:14:48;5.65;;;0.52;;
74808;SDS011;63338;39.544;2.596;2023-04-03T15:17:19;2.58;;;0.52;;
74808;SDS011;63338;39.544;2.596;2023-04-03T15:19:47;2.70;;;0.52;;
74808;SDS011;63338;39.544;2.596;2023-04-03T15:22:14;1.95;;;0.30;;
74808;SDS011;63338;39.544;2.596;2023-04-03T15:24:45;3.90;;;0.30;;
74808;SDS011;63338;39.544;2.596;2023-04-03T15:27:12;3.13;;;0.35;;
74808;SDS011;63338;39.544;2.596;2023-04-03T15:29:40;2.38;;;0.30;;
74808;SDS011;63338;39.544;2.596;2023-04-03T15:32:08;4.63;;;0.50;;
74808;SDS011;63338;39.544;2.596;2023-04-03T15:34:34;3.00;;;0.43;;
74808;SDS011;63338;39.544;2.596;2023-04-03T15:37:01;5.38;;;0.68;;
74808;SDS011;63338;39.544;2.596;2023-04-03T15:39:27;1.33;;;0.32;;
74808;SDS011;63338;39.544;2.596;2023-04-03T15:41:54;2.65;;;0.32;;
74808;SDS011;63338;39.544;2.596;2023-04-03T15:44:20;6.57;;;0.52;;
74808;SDS011;63338;39.544;2.596;2023-04-03T15:46:47;2.10;;;0.40;;
74808;SDS011;63338;39.544;2.596;2023-04-03T15:49:15;2.00;;;0.38;;
74808;SDS011;63338;39.544;2.596;2023-04-03T15:51:42;2.45;;;0.40;;
74808;SDS011;63338;39.544;2.596;2023-04-03T15:54:08;2.72;;;0.38;;
74808;SDS011;63338;39.544;2.596;2023-04-03T15:56:34;2.63;;;0.30;;
74808;SDS011;63338;39.544;2.596;2023-04-03T15:59:00;3.55;;;0.50;;
74808;SDS011;63338;39.544;2.596;2023-04-03T16:01:26;2.20;;;0.52;;
74808;SDS011;63338;39.544;2.596;2023-04-03T16:03:52;2.45;;;0.45;;
74808;SDS011;63338;39.544;2.596;2023-04-03T16:06:19;3.00;;;0.50;;
74808;SDS011;63338;39.544;2.596;2023-04-03T16:08:46;2.38;;;0.30;;
74808;SDS011;63338;39.544;2.596;2023-04-03T16:11:13;2.13;;;0.40;;
74808;SDS011;63338;39.544;2.596;2023-04-03T16:13:39;4.07;;;0.50;;
74808;SDS011;63338;39.544;2.596;2023-04-03T16:16:05;3.30;;;0.40;;
74808;SDS011;63338;39.544;2.596;2023-04-03T16:18:32;2.03;;;0.30;;
74808;SDS011;63338;39.544;2.596;2023-04-03T16:21:00;3.72;;;0.40;;
74808;SDS011;63338;39.544;2.596;2023-04-03T16:23:26;3.13;;;0.40;;
74808;SDS011;63338;39.544;2.596;2023-04-03T16:25:53;4.25;;;0.45;;
74808;SDS011;63338;39.544;2.596;2023-04-03T16:28:26;4.95;;;0.60;;
74808;SDS011;63338;39.544;2.596;2023-04-03T16:30:56;3.50;;;0.52;;
74808;SDS011;63338;39.544;2.596;2023-04-03T16:33:23;2.47;;;0.30;;
74808;SDS011;63338;39.544;2.596;2023-04-03T16:35:50;4.40;;;1.27;;
74808;SDS011;63338;39.544;2.596;2023-04-03T16:38:19;1.17;;;0.30;;
74808;SDS011;63338;39.544;2.596;2023-04-03T16:40:47;3.92;;;0.50;;
74808;SDS011;63338;39.544;2.596;2023-04-03T16:43:14;2.00;;;0.40;;
74808;SDS011;63338;39.544;2.596;2023-04-03T16:45:41;1.73;;;0.40;;
74808;SDS011;63338;39.544;2.596;2023-04-03T16:48:08;4.82;;;0.70;;
74808;SDS011;63338;39.544;2.596;2023-04-03T16:50:34;2.72;;;0.57;;
74808;SDS011;63338;39.544;2.596;2023-04-03T16:53:00;2.72;;;0.30;;
74808;SDS011;63338;39.544;2.596;2023-04-03T16:55:28;4.93;;;0.70;;
74808;SDS011;63338;39.544;2.596;2023-04-03T16:57:57;2.10;;;0.40;;
74808;SDS011;63338;39.544;2.596;2023-04-03T17:00:23;1.55;;;0.28;;
74808;SDS011;63338;39.544;2.596;2023-04-03T17:02:50;4.18;;;0.43;;
74808;SDS011;63338;39.544;2.596;2023-04-03T17:05:16;4.72;;;0.70;;
74808;SDS011;63338;39.544;2.596;2023-04-03T17:07:42;3.17;;;0.30;;
74808;SDS011;63338;39.544;2.596;2023-04-03T17:10:08;1.52;;;0.32;;
74808;SDS011;63338;39.544;2.596;2023-04-03T17:12:36;2.28;;;0.45;;
74808;SDS011;63338;39.544;2.596;2023-04-03T17:15:02;2.83;;;0.50;;
74808;SDS011;63338;39.544;2.596;2023-04-03T17:17:29;3.63;;;0.40;;